• Join FlightAware (Why Join?)
  • Login
  • US Flag 
08:19AM EDT


 

Airport Tracker/Info


-or-


 

Live Flight TrackerFlight Track Log ✈ EJA619 ✈ 02-Jul-2013 ✈ MYAM / MHH - KPBI

Flight Track Log - Related Links

Times and Time Zones

All times are in EDT time to prevent confusion due to time zone crossing. See the EJA619 flight status page for this flight to view local times or setup timezone preferences in your user account.

Time Position Orientation Groundspeed Altitude Reporting Facility
EDT Latitude Longitude Course Direction KTS MPH feet Rate Location/Type
03:13PM 26.6169 -77.0378 270° West 188 216 9,100  Level Miami Center
03:14PM 26.6650 -77.0981 312° West 178 205 12,300 2,580 Climbing Miami Center
03:15PM 26.7108 -77.1728 304° West 237 273 14,300 1,800 Climbing Miami Center
03:16PM 26.7525 -77.2611 298° West 301 346 15,900 1,560 Climbing Miami Center
03:17PM 26.7583 -77.3683 274° West 312 359 17,500 1,260 Climbing Miami Center
03:18PM 26.5167 -77.7049 270° West  Level FlightAware Approximate
03:18PM 26.7622 -77.4592 273° West 331 381 18,500  Level Miami Center
03:19PM 26.7681 -77.5778 273° West 402 463 20,000 720 Climbing Miami Center
03:20PM 26.7736 -77.6942 273° West 343 395 20,000  Level Miami Center
03:21PM 26.7769 -77.8106 272° West 366 421 20,000  Level Miami Center
03:22PM 26.7783 -77.9153 271° West 367 422 20,000  Level Miami Center
03:23PM 26.7503 -78.0383 256° West 370 426 20,000  Level Miami Center
03:24PM 26.7286 -78.1381 256° West 364 419 20,000  Level Miami Center
03:25PM 26.7361 -78.2453 275° West 360 414 20,000  Level Miami Center
03:26PM 26.7411 -78.3594 273° West 343 395 20,000  Level Miami Center
03:27PM 26.7544 -78.4689 278° West 366 421 20,000  Level Miami Center
03:28PM 26.7658 -78.5783 277° West 372 428 20,000 -900 Level Miami Center
03:29PM 26.7850 -78.7158 279° West 375 432 18,200 -1,860 Descending Miami Center
03:30PM 26.8025 -78.8233 280° West 375 432 16,300 -2,040 Descending Miami Center
03:31PM 26.8136 -78.9283 277° West 363 418 14,200 -2,160 Descending Miami Center
03:32PM 26.8244 -79.0333 277° West 354 407 12,000 -2,100 Descending Miami Center
03:33PM 26.8481 -79.1361 284° West 347 399 10,000 -1,800 Descending Miami Center
03:34PM 26.8675 -79.2228 284° West 328 377 8,400 -1,620 Descending Miami Center
03:35PM 26.8892 -79.3069 286° West 299 344 6,800 -1,200 Descending Miami Center
03:36PM 26.8919 -79.3886 272° West 285 328 6,000 -420 Descending Miami Center
03:37PM 26.8778 -79.4767 260° West 286 329 6,000 -600 Level Miami Center
03:38PM 26.8697 -79.5697 264° West 292 336 4,800 -1,260 Descending Miami Center
03:39PM 26.8642 -79.6533 266° West 284 327 3,500 -900 Descending Miami Center
03:40PM 26.8603 -79.7394 267° West 284 327 3,000 -300 Descending Miami Center
03:41PM 26.8589 -79.8139 269° West 272 313 3,000  Level Miami Center
03:42PM 26.8528 -79.9000 265° West 272 313 3,000  Level Miami Center
03:43PM 26.8425 -79.9906 263° West 272 313 3,000  Level Miami Center
03:45PM 26.7071 -80.0799 North  Level Estimated
03:52PM 26.6832 -80.0956 North  Level Estimated
03:53PM 26.6832 -80.0956 North  Level Estimated
03:54PM 26.6832 -80.0956 North  Level Estimated
03:55PM 26.6832 -80.0956 North  Level Estimated